^^
Your Local Weather - Clay, NY Station Historical Data
Daily Summary for February 26, 2017 Units:  Metric    English   Both
« Previous Day
Next Day »
Daily Weekly Monthly Yearly Custom
  High: Low: Average:
Temperature: 0.7 °C -3.3 °C -0.9 °C
Dew Point: -3.4 °C -9.2 °C -6.3 °C
Humidity: 89% 54% 67%
Wind Speed: 11.3km/h 0km/h 5.6km/h
Wind Gust: 29km/h - -
Wind- - West
Pressure: 1019.5 hPa 1006 hPa -
Precipitation: 1.78 mm    
Historical Graphs
 
 
Tabular Data for February 26, 2017
Time Temperature Dew Point Pressure Wind Wind Speed Wind Gust Humidity Rainfall Rate (Hourly) solar
00:04 0.4 °C -3.8 °C 1006 hPa WNW 9.7 km/h 17.7 km/h 73% 0 mm 0 W/m2
00:09 0.4 °C -3.8 °C 1006 hPa WNW 8 km/h 8 km/h 73% 0 mm 0 W/m2
00:15 0.4 °C -4 °C 1006 hPa NW 8 km/h 9.7 km/h 72% 0 mm 0 W/m2
00:22 0.4 °C -4.4 °C 1006 hPa WNW 8 km/h 9.7 km/h 70% 0 mm 0 W/m2
00:28 0.4 °C -4.8 °C 1006 hPa NW 8 km/h 9.7 km/h 68% 0 mm 0 W/m2
00:33 0.3 °C -5.1 °C 1006.3 hPa WNW 8 km/h 8 km/h 67% 0 mm 0 W/m2
00:39 0.3 °C -4.9 °C 1006.3 hPa WNW 6.4 km/h 9.7 km/h 68% 0 mm 0 W/m2
00:45 0.3 °C -5.5 °C 1006.3 hPa WNW 8 km/h 12.9 km/h 65% 0 mm 0 W/m2
00:52 0.3 °C -5.7 °C 1006.7 hPa West 8 km/h 9.7 km/h 64% 0 mm 0 W/m2
00:58 0.3 °C -5.7 °C 1006.7 hPa NW 9.7 km/h 11.3 km/h 64% 0 mm 0 W/m2
01:04 0.3 °C -5.3 °C 1006.7 hPa NW 8 km/h 17.7 km/h 66% 0 mm 0 W/m2
01:10 0.2 °C -6.2 °C 1006.7 hPa WNW 9.7 km/h 9.7 km/h 62% 0 mm 0 W/m2
01:16 0.2 °C -6.3 °C 1006.7 hPa WNW 11.3 km/h 12.9 km/h 62% 0 mm 0 W/m2
01:22 0.1 °C -6.3 °C 1007 hPa NW 8 km/h 9.7 km/h 62% 0 mm 0 W/m2
01:28 0.1 °C -6.2 °C 1007 hPa SW 9.7 km/h 16.1 km/h 63% 0 mm 0 W/m2
01:34 -0.1 °C -6.5 °C 1007 hPa WNW 11.3 km/h 12.9 km/h 62% 0 mm 0 W/m2
01:40 -0.1 °C -6.7 °C 1007 hPa WNW 11.3 km/h 12.9 km/h 61% 0 mm 0 W/m2
01:46 -0.1 °C -6.5 °C 1007 hPa WNW 11.3 km/h 14.5 km/h 62% 0 mm 0 W/m2
01:52 -0.1 °C -6.7 °C 1007 hPa WNW 11.3 km/h 14.5 km/h 61% 0 mm 0 W/m2
01:58 -0.1 °C -6.7 °C 1007 hPa WNW 11.3 km/h 29 km/h 61% 0 mm 0 W/m2
02:04 -0.2 °C -6.8 °C 1007 hPa West 9.7 km/h 12.9 km/h 61% 0 mm 0 W/m2
02:10 -0.2 °C -6.8 °C 1007.3 hPa WNW 9.7 km/h 9.7 km/h 61% 0 mm 0 W/m2
02:16 -0.3 °C -6.7 °C 1007.3 hPa NW 9.7 km/h 9.7 km/h 62% 0 mm 0 W/m2
02:22 -0.3 °C -6.7 °C 1007.7 hPa WSW 9.7 km/h 9.7 km/h 62% 0 mm 0 W/m2
02:28 -0.4 °C -6.8 °C 1007.7 hPa West 9.7 km/h 16.1 km/h 62% 0 mm 0 W/m2
02:36 -0.5 °C -6.7 °C 1007.7 hPa WSW 11.3 km/h 14.5 km/h 63% 0 mm 0 W/m2
02:42 -0.5 °C -6.7 °C 1007.7 hPa West 9.7 km/h 14.5 km/h 63% 0 mm 0 W/m2
02:48 -0.6 °C -6.6 °C 1008 hPa West 8 km/h 19.3 km/h 64% 0 mm 0 W/m2
02:54 -0.6 °C -6.7 °C 1007.7 hPa West 9.7 km/h 19.3 km/h 63% 0 mm 0 W/m2
03:00 -0.6 °C -6.7 °C 1008 hPa West 9.7 km/h 9.7 km/h 63% 0 mm 0 W/m2
03:06 -0.6 °C -6.6 °C 1008 hPa WNW 8 km/h 12.9 km/h 64% 0 mm 0 W/m2
03:12 -0.6 °C -6.6 °C 1008 hPa WNW 8 km/h 8 km/h 64% 0 mm 0 W/m2
03:18 -0.6 °C -6.6 °C 1008 hPa West 8 km/h 11.3 km/h 64% 0 mm 0 W/m2
03:24 -0.6 °C -7 °C 1008 hPa WNW 8 km/h 11.3 km/h 62% 0 mm 0 W/m2
03:30 -0.6 °C -7.2 °C 1008 hPa West 9.7 km/h 9.7 km/h 61% 0 mm 0 W/m2
03:36 -0.7 °C -7.3 °C 1008.4 hPa West 8 km/h 19.3 km/h 61% 0 mm 0 W/m2
03:42 -0.7 °C -7.3 °C 1008.4 hPa WSW 8 km/h 8 km/h 61% 0 mm 0 W/m2
03:48 -0.7 °C -7.3 °C 1008.7 hPa WSW 9.7 km/h 12.9 km/h 61% 0 mm 0 W/m2
03:54 -0.7 °C -7.6 °C 1008.7 hPa WNW 9.7 km/h 19.3 km/h 60% 0 mm 0 W/m2
04:00 -0.7 °C -7.6 °C 1008.7 hPa WNW 11.3 km/h 11.3 km/h 60% 0 mm 0 W/m2
04:06 -0.8 °C -7.4 °C 1009 hPa WNW 9.7 km/h 11.3 km/h 61% 0 mm 0 W/m2
04:12 -0.8 °C -7.2 °C 1009.4 hPa WSW 9.7 km/h 12.9 km/h 62% 0 mm 0 W/m2
04:18 -0.8 °C -7.4 °C 1009.4 hPa West 9.7 km/h 12.9 km/h 61% 0 mm 0 W/m2
04:24 -0.8 °C -7.2 °C 1009.4 hPa WNW 8 km/h 12.9 km/h 62% 0 mm 0 W/m2
04:30 -0.9 °C -7.3 °C 1009.4 hPa WNW 8 km/h 12.9 km/h 62% 0 mm 0 W/m2
04:36 -1 °C -6.9 °C 1009.7 hPa West 9.7 km/h 17.7 km/h 64% 0 mm 0 W/m2
04:42 -1.2 °C -6.7 °C 1010 hPa West 11.3 km/h 22.5 km/h 66% 0 mm 0 W/m2
04:48 -1.3 °C -6.7 °C 1010 hPa NW 9.7 km/h 22.5 km/h 67% 0 mm 0 W/m2
04:54 -1.3 °C -6.5 °C 1010.4 hPa WNW 8 km/h 11.3 km/h 68% 0 mm 0 W/m2
05:00 -1.7 °C -5.9 °C 1010.4 hPa WSW 9.7 km/h 9.7 km/h 73% 0 mm 0 W/m2
05:06 -2 °C -5.7 °C 1010.4 hPa West 8 km/h 14.5 km/h 76% 0 mm 0 W/m2
05:12 -2.2 °C -5.6 °C 1010.4 hPa West 9.7 km/h 11.3 km/h 78% 0 mm 0 W/m2
05:18 -2.3 °C -5.4 °C 1010.7 hPa West 9.7 km/h 11.3 km/h 79% 0 mm 0 W/m2
05:24 -2.2 °C -5.5 °C 1010.7 hPa West 9.7 km/h 11.3 km/h 78% 0 mm 0 W/m2
05:30 -2.1 °C -5.6 °C 1010.7 hPa WNW 8 km/h 9.7 km/h 77% 0 mm 0 W/m2
05:36 -1.9 °C -5.9 °C 1011.1 hPa West 9.7 km/h 9.7 km/h 74% 0 mm 0 W/m2
05:42 -1.7 °C -6.3 °C 1011.1 hPa SW 9.7 km/h 19.3 km/h 71% 0 mm 0 W/m2
05:48 -1.6 °C -6.4 °C 1011.1 hPa West 9.7 km/h 19.3 km/h 70% 0 mm 0 W/m2
05:54 -1.6 °C -6.5 °C 1011.1 hPa WNW 8 km/h 9.7 km/h 69% 0 mm 0 W/m2
06:00 -1.6 °C -6.7 °C 1011.4 hPa WNW 8 km/h 8 km/h 68% 0 mm 0 W/m2
06:06 -1.6 °C -6.9 °C 1011.4 hPa West 8 km/h 8 km/h 67% 0 mm 0 W/m2
06:12 -1.5 °C -7.1 °C 1011.4 hPa NW 9.7 km/h 9.7 km/h 66% 0 mm 0 W/m2
06:18 -1.5 °C -7.1 °C 1011.4 hPa West 9.7 km/h 9.7 km/h 66% 0 mm 0 W/m2
06:24 -1.5 °C -7.1 °C 1011.4 hPa WNW 9.7 km/h 9.7 km/h 66% 0 mm 0 W/m2
06:30 -1.6 °C -7.3 °C 1011.4 hPa NW 8 km/h 8 km/h 65% 0 mm 0 W/m2
06:36 -1.5 °C -7.2 °C 1011.4 hPa West 9.7 km/h 9.7 km/h 65% 0 mm 0 W/m2
06:42 -1.5 °C -7.4 °C 1011.7 hPa NW 8 km/h 16.1 km/h 64% 0 mm 0 W/m2
06:54 -1.4 °C -7.7 °C 1012.1 hPa NW 6.4 km/h 9.7 km/h 62% 0 mm 0 W/m2
07:00 -1.3 °C -7.9 °C 1012.1 hPa West 9.7 km/h 17.7 km/h 61% 0 mm 7 W/m2
07:06 -1.3 °C -8.7 °C 1012.1 hPa WNW 11.3 km/h 17.7 km/h 57% 0 mm 11 W/m2
07:12 -1.3 °C -9.2 °C 1012.1 hPa WSW 11.3 km/h 16.1 km/h 55% 0 mm 11 W/m2
07:18 -1.3 °C -8.9 °C 1012.8 hPa WNW 11.3 km/h 16.1 km/h 56% 0 mm 14 W/m2
07:24 -1.3 °C -8.6 °C 1012.8 hPa NW 8 km/h 9.7 km/h 58% 0 mm 19 W/m2
07:30 -1.3 °C -8.6 °C 1012.8 hPa West 9.7 km/h 14.5 km/h 58% 0 mm 23 W/m2
07:36 -1.3 °C -8.6 °C 1013.1 hPa NW 9.7 km/h 16.1 km/h 58% 0 mm 32 W/m2
07:42 -1.3 °C -8.5 °C 1013.1 hPa West 8 km/h 14.5 km/h 58% 0 mm 56 W/m2
07:48 -1.2 °C -8.4 °C 1013.4 hPa WNW 6.4 km/h 14.5 km/h 58% 0 mm 46 W/m2
07:54 -1.4 °C -6.8 °C 1013.8 hPa NW 8 km/h 9.7 km/h 67% 0 mm 44 W/m2
08:00 -1.8 °C -6.6 °C 1013.8 hPa WNW 8 km/h 11.3 km/h 70% 0 mm 49 W/m2
08:06 -1.7 °C -6.7 °C 1013.8 hPa WNW 6.4 km/h 11.3 km/h 69% 0 mm 98 W/m2
08:12 -1.4 °C -6.8 °C 1014.1 hPa NW 6.4 km/h 8 km/h 67% 0 mm 53 W/m2
08:18 -1.4 °C -6.7 °C 1014.1 hPa NW 6.4 km/h 9.7 km/h 67% 0 mm 74 W/m2
08:24 -1.3 °C -7.1 °C 1014.1 hPa WNW 6.4 km/h 6.4 km/h 65% 0 mm 60 W/m2
08:30 -1.3 °C -7.3 °C 1014.1 hPa NW 6.4 km/h 6.4 km/h 64% 0 mm 53 W/m2
08:36 -1.6 °C -7.3 °C 1014.4 hPa NW 9.7 km/h 20.9 km/h 65% 0 mm 58 W/m2
08:42 -1.5 °C -7.1 °C 1014.4 hPa WNW 8 km/h 9.7 km/h 66% 0 mm 65 W/m2
08:48 -1.5 °C -6.8 °C 1014.4 hPa NNW 8 km/h 9.7 km/h 67% 0 mm 97 W/m2
08:54 -1.4 °C -6.7 °C 1014.8 hPa WNW 6.4 km/h 8 km/h 67% 0 mm 98 W/m2
09:00 -1.4 °C -6.2 °C 1014.8 hPa NW 6.4 km/h 6.4 km/h 70% 0 mm 142 W/m2
09:06 -1.4 °C -5.6 °C 1014.8 hPa WNW 4.8 km/h 6.4 km/h 73% 0 mm 130 W/m2
09:12 -1.6 °C -5.8 °C 1015.1 hPa NNW 4.8 km/h 6.4 km/h 73% 0 mm 91 W/m2
09:18 -1.8 °C -5.8 °C 1015.1 hPa NW 8 km/h 8 km/h 74% 0 mm 56 W/m2
09:24 -2.1 °C -5.7 °C 1015.1 hPa WNW 6.4 km/h 8 km/h 76% 0 mm 76 W/m2
09:30 -2.2 °C -5.2 °C 1015.1 hPa WNW 6.4 km/h 6.4 km/h 80% 0 mm 84 W/m2
09:36 -2.4 °C -4.9 °C 1015.5 hPa WNW 4.8 km/h 8 km/h 83% 0 mm 60 W/m2
09:42 -2.7 °C -4.8 °C 1015.5 hPa WNW 4.8 km/h 8 km/h 85% 0 mm 39 W/m2
09:48 -2.8 °C -4.8 °C 1015.5 hPa WNW 3.2 km/h 8 km/h 86% 0 mm 60 W/m2
09:54 -2.7 °C -4.6 °C 1015.5 hPa WNW 3.2 km/h 6.4 km/h 87% 0 mm 128 W/m2
10:00 -2.6 °C -4.3 °C 1015.5 hPa NW 3.2 km/h 3.2 km/h 88% 0 mm 67 W/m2
10:06 -2.6 °C -4.3 °C 1015.8 hPa NW 3.2 km/h 3.2 km/h 88% 0 mm 53 W/m2
10:12 -2.6 °C -4.3 °C 1015.8 hPa NW 1.6 km/h 4.8 km/h 88% 0 mm 49 W/m2
10:18 -2.6 °C -4.3 °C 1015.8 hPa NW 1.6 km/h 4.8 km/h 88% 0 mm 47 W/m2
10:24 -2.6 °C -4.3 °C 1015.8 hPa West 1.6 km/h 3.2 km/h 88% 0 mm 47 W/m2
10:30 -2.6 °C -4.3 °C 1015.8 hPa WSW 1.6 km/h 1.6 km/h 88% 0 mm 62 W/m2
10:36 -2.6 °C -4.3 °C 1015.8 hPa WNW 1.6 km/h 3.2 km/h 88% 0 mm 67 W/m2
10:42 -2.6 °C -4.1 °C 1015.8 hPa NW 3.2 km/h 3.2 km/h 89% 0 mm 60 W/m2
10:48 -2.4 °C -3.9 °C 1015.8 hPa NW 3.2 km/h 3.2 km/h 89% 0 mm 113 W/m2
10:54 -2.1 °C -3.6 °C 1015.8 hPa NW 1.6 km/h 4.8 km/h 89% 0 mm 141 W/m2
11:00 -1.8 °C -3.5 °C 1016.1 hPa WNW 4.8 km/h 8 km/h 88% 0 mm 141 W/m2
11:06 -1.7 °C -3.8 °C 1016.1 hPa NNW 4.8 km/h 8 km/h 86% 0 mm 149 W/m2
11:12 -1.3 °C -3.5 °C 1016.1 hPa NW 3.2 km/h 4.8 km/h 85% 0 mm 243 W/m2
11:18 -0.9 °C -3.4 °C 1016.1 hPa WNW 4.8 km/h 9.7 km/h 83% 3.05 mm 418 W/m2
11:24 -0.9 °C -3.8 °C 1016.1 hPa NNW 4.8 km/h 8 km/h 81% 2.79 mm 186 W/m2
11:30 -0.7 °C -3.7 °C 1016.1 hPa NW 6.4 km/h 6.4 km/h 80% 1.78 mm 366 W/m2
11:36 -0.6 °C -3.8 °C 1016.1 hPa NNW 4.8 km/h 6.4 km/h 79% 1.78 mm 594 W/m2
11:42 -0.7 °C -4.1 °C 1016.1 hPa NNW 4.8 km/h 8 km/h 78% 1.52 mm 229 W/m2
11:48 -0.1 °C -3.8 °C 1016.1 hPa NNW 6.4 km/h 11.3 km/h 76% 1.27 mm 831 W/m2
11:54 -0.2 °C -4.3 °C 1016.1 hPa NW 6.4 km/h 9.7 km/h 74% 0 mm 258 W/m2
12:00 -0.6 °C -4.5 °C 1016.1 hPa NNW 6.4 km/h 6.4 km/h 75% 0 mm 241 W/m2
12:06 -0.8 °C -4.6 °C 1016.1 hPa North 6.4 km/h 11.3 km/h 76% 0 mm 169 W/m2
12:12 -0.8 °C -4.1 °C 1016.1 hPa WNW 4.8 km/h 6.4 km/h 78% 0 mm 258 W/m2
12:18 -0.6 °C -4.8 °C 1016.1 hPa NW 4.8 km/h 8 km/h 73% 0 mm 288 W/m2
12:24 -0.3 °C -4.9 °C 1016.1 hPa WNW 4.8 km/h 4.8 km/h 71% 0 mm 346 W/m2
12:30 -0.4 °C -5.4 °C 1016.1 hPa WNW 4.8 km/h 6.4 km/h 69% 1.02 mm 225 W/m2
12:36 -0.3 °C -5.7 °C 1016.5 hPa WNW 4.8 km/h 9.7 km/h 67% 1.02 mm 225 W/m2
12:42 -0.4 °C -5.9 °C 1016.1 hPa WNW 6.4 km/h 12.9 km/h 66% 0 mm 255 W/m2
12:48 -0.4 °C -6.2 °C 1016.5 hPa West 8 km/h 12.9 km/h 65% 0 mm 181 W/m2
12:54 -0.5 °C -5.9 °C 1016.5 hPa NW 6.4 km/h 8 km/h 67% 0 mm 123 W/m2
13:00 -0.7 °C -5.4 °C 1016.5 hPa NNW 6.4 km/h 6.4 km/h 70% 0 mm 151 W/m2
13:06 -0.9 °C -5.2 °C 1016.5 hPa NW 6.4 km/h 6.4 km/h 73% 0 mm 207 W/m2
13:12 -0.9 °C -4.9 °C 1016.5 hPa NW 4.8 km/h 9.7 km/h 74% 0 mm 299 W/m2
13:18 -0.4 °C -4.7 °C 1016.5 hPa NW 4.8 km/h 9.7 km/h 73% 0 mm 236 W/m2
13:24 -0.3 °C -5.3 °C 1016.5 hPa West 6.4 km/h 12.9 km/h 69% 0 mm 251 W/m2
13:30 -0.2 °C -5.8 °C 1016.5 hPa SW 6.4 km/h 8 km/h 66% 0 mm 220 W/m2
13:36 -0.1 °C -5.7 °C 1016.8 hPa West 6.4 km/h 8 km/h 66% 0 mm 239 W/m2
13:42 -0.2 °C -5.6 °C 1016.5 hPa WNW 8 km/h 8 km/h 67% 0 mm 220 W/m2
13:48 -0.2 °C -5.4 °C 1016.8 hPa WNW 6.4 km/h 8 km/h 68% 0 mm 232 W/m2
13:54 -0.2 °C -5.6 °C 1016.8 hPa WNW 6.4 km/h 8 km/h 67% 0 mm 274 W/m2
14:00 0.1 °C -5.6 °C 1016.8 hPa NW 6.4 km/h 6.4 km/h 66% 0 mm 271 W/m2
14:06 0.1 °C -6.3 °C 1016.8 hPa West 6.4 km/h 12.9 km/h 62% 0 mm 211 W/m2
14:12 -0.1 °C -6.5 °C 1017.2 hPa WNW 8 km/h 8 km/h 62% 0 mm 158 W/m2
14:18 -0.2 °C -7.1 °C 1017.2 hPa NW 8 km/h 17.7 km/h 60% 0 mm 146 W/m2
14:24 -0.3 °C -6.6 °C 1017.2 hPa NW 9.7 km/h 9.7 km/h 63% 0 mm 162 W/m2
14:30 -0.4 °C -6.4 °C 1017.2 hPa West 8 km/h 8 km/h 64% 0 mm 178 W/m2
14:36 -0.3 °C -5.9 °C 1017.2 hPa WNW 6.4 km/h 8 km/h 66% 0 mm 121 W/m2
14:42 -0.3 °C -5.9 °C 1017.2 hPa NW 4.8 km/h 8 km/h 66% 0 mm 148 W/m2
14:48 -0.4 °C -5.4 °C 1017.2 hPa NW 4.8 km/h 8 km/h 69% 0 mm 109 W/m2
14:54 -0.6 °C -5.2 °C 1017.2 hPa NW 3.2 km/h 4.8 km/h 71% 0 mm 81 W/m2
15:00 -0.6 °C -4.8 °C 1017.2 hPa NW 3.2 km/h 4.8 km/h 73% 0 mm 91 W/m2
15:06 -0.6 °C -4.7 °C 1017.2 hPa NW 3.2 km/h 4.8 km/h 74% 0 mm 192 W/m2
15:12 -0.6 °C -4.4 °C 1017.2 hPa NW 3.2 km/h 3.2 km/h 75% 0 mm 202 W/m2
15:18 -0.5 °C -4.6 °C 1017.2 hPa WNW 1.6 km/h 3.2 km/h 74% 0 mm 183 W/m2
15:24 -0.3 °C -4.4 °C 1017.2 hPa WNW 3.2 km/h 4.8 km/h 74% 0 mm 142 W/m2
15:30 -0.3 °C -4.2 °C 1017.2 hPa NNW 3.2 km/h 3.2 km/h 75% 0 mm 107 W/m2
15:36 -0.3 °C -4.6 °C 1017.2 hPa WNW 3.2 km/h 4.8 km/h 73% 0 mm 125 W/m2
15:42 -0.2 °C -4.5 °C 1017.2 hPa WNW 3.2 km/h 3.2 km/h 73% 0 mm 218 W/m2
15:48 -0.1 °C -4.3 °C 1017.2 hPa NNW 3.2 km/h 4.8 km/h 73% 0 mm 167 W/m2
15:54 -0.1 °C -4.3 °C 1017.5 hPa NNW 4.8 km/h 8 km/h 73% 0 mm 98 W/m2
16:00 -0.1 °C -4.3 °C 1017.5 hPa North 3.2 km/h 3.2 km/h 73% 0 mm 132 W/m2
16:06 0.1 °C -4.6 °C 1017.5 hPa North 3.2 km/h 3.2 km/h 71% 0 mm 158 W/m2
16:12 0.2 °C -4.4 °C 1017.5 hPa WNW 3.2 km/h 3.2 km/h 71% 0 mm 93 W/m2
16:18 0.3 °C -4.4 °C 1017.5 hPa WNW 1.6 km/h 3.2 km/h 71% 0 mm 309 W/m2
16:24 0.2 °C -4.6 °C 1017.5 hPa NNW 1.6 km/h 8 km/h 70% 0 mm 91 W/m2
16:30 0.2 °C -4.7 °C 1017.8 hPa NNW 3.2 km/h 4.8 km/h 70% 0 mm 91 W/m2
16:36 0.1 °C -5.3 °C 1017.8 hPa NW 1.6 km/h 4.8 km/h 67% 0 mm 81 W/m2
16:42 0.2 °C -6 °C 1017.8 hPa WNW 3.2 km/h 3.2 km/h 63% 0 mm 67 W/m2
16:48 0.3 °C -6.1 °C 1017.8 hPa West 1.6 km/h 3.2 km/h 62% 0 mm 58 W/m2
16:54 0.4 °C -6.7 °C 1017.8 hPa SW 1.6 km/h 8 km/h 59% 0 mm 53 W/m2
17:00 0.4 °C -7.1 °C 1017.8 hPa NW 3.2 km/h 6.4 km/h 57% 0 mm 51 W/m2
17:06 0.5 °C -7.3 °C 1017.8 hPa NW 4.8 km/h 6.4 km/h 56% 0 mm 42 W/m2
17:12 0.6 °C -7 °C 1017.8 hPa West 3.2 km/h 8 km/h 57% 0 mm 44 W/m2
17:18 0.6 °C -6.9 °C 1018.2 hPa West 3.2 km/h 8 km/h 57% 0 mm 46 W/m2
17:24 0.7 °C -7.3 °C 1018.2 hPa SW 3.2 km/h 9.7 km/h 55% 0 mm 21 W/m2
17:30 0.5 °C -7.7 °C 1018.2 hPa SW 4.8 km/h 4.8 km/h 54% 0 mm 16 W/m2
17:36 0.4 °C -7.8 °C 1018.2 hPa WSW 4.8 km/h 9.7 km/h 54% 0 mm 14 W/m2
17:42 0.3 °C -7.7 °C 1018.2 hPa SW 4.8 km/h 6.4 km/h 55% 0 mm 11 W/m2
17:48 0.3 °C -7.7 °C 1018.5 hPa SW 4.8 km/h 6.4 km/h 55% 0 mm 5 W/m2
17:54 0.2 °C -7.8 °C 1018.2 hPa SSW 4.8 km/h 8 km/h 55% 0 mm 0 W/m2
18:00 0.1 °C -7.7 °C 1018.5 hPa WSW 3.2 km/h 3.2 km/h 56% 0 mm 0 W/m2
18:06 -0.1 °C -7.8 °C 1018.5 hPa SSW 1.6 km/h 4.8 km/h 56% 0 mm 0 W/m2
18:12 -0.1 °C -7.8 °C 1018.5 hPa SW 3.2 km/h 3.2 km/h 56% 0 mm 0 W/m2
18:18 -0.2 °C -7.9 °C 1018.5 hPa SSW 3.2 km/h 3.2 km/h 56% 0 mm 0 W/m2
18:24 -0.2 °C -7.9 °C 1018.5 hPa SW 1.6 km/h 3.2 km/h 56% 0 mm 0 W/m2
18:30 -0.3 °C -8 °C 1018.5 hPa SW 3.2 km/h 3.2 km/h 56% 0 mm 0 W/m2
18:36 -0.4 °C -8.1 °C 1018.5 hPa SW 3.2 km/h 6.4 km/h 56% 0 mm 0 W/m2
18:42 -0.4 °C -7.9 °C 1018.5 hPa SSW 1.6 km/h 4.8 km/h 57% 0 mm 0 W/m2
18:48 -0.6 °C -7.8 °C 1018.5 hPa SW 1.6 km/h 4.8 km/h 58% 0 mm 0 W/m2
18:54 -0.6 °C -7.9 °C 1018.2 hPa SW 1.6 km/h 4.8 km/h 58% 0 mm 0 W/m2
19:00 -0.7 °C -7.9 °C 1018.5 hPa SW 1.6 km/h 1.6 km/h 58% 0 mm 0 W/m2
19:06 -0.7 °C -7.7 °C 1018.5 hPa South 1.6 km/h 3.2 km/h 59% 0 mm 0 W/m2
19:12 -0.8 °C -7.8 °C 1018.8 hPa Calm   1.6 km/h 59% 0 mm 0 W/m2
19:18 -0.9 °C -7.7 °C 1018.8 hPa Calm   4.8 km/h 60% 0 mm 0 W/m2
19:24 -1.1 °C -7.6 °C 1018.5 hPa South 1.6 km/h 3.2 km/h 61% 0 mm 0 W/m2
19:30 -1.1 °C -7.5 °C 1018.8 hPa South 1.6 km/h 1.6 km/h 62% 0 mm 0 W/m2
19:36 -1.1 °C -7.5 °C 1018.8 hPa South 1.6 km/h 3.2 km/h 62% 0 mm 0 W/m2
19:42 -1.2 °C -7.3 °C 1018.8 hPa South 1.6 km/h 3.2 km/h 63% 0 mm 0 W/m2
19:48 -1.3 °C -7.4 °C 1018.8 hPa South 1.6 km/h 3.2 km/h 63% 0 mm 0 W/m2
19:54 -1.4 °C -7.4 °C 1018.5 hPa South 1.6 km/h 1.6 km/h 64% 0 mm 0 W/m2
20:00 -1.6 °C -7.3 °C 1018.5 hPa South 1.6 km/h 1.6 km/h 65% 0 mm 0 W/m2
20:06 -1.9 °C -7.1 °C 1018.8 hPa Calm   1.6 km/h 68% 0 mm 0 W/m2
20:12 -2.4 °C -7.3 °C 1018.8 hPa Calm     69% 0 mm 0 W/m2
20:18 -2.6 °C -7.3 °C 1018.8 hPa Calm     70% 0 mm 0 W/m2
20:24 -2.7 °C -7.3 °C 1018.8 hPa Calm     71% 0 mm 0 W/m2
20:30 -2.7 °C -7.3 °C 1018.8 hPa Calm     71% 0 mm 0 W/m2
20:36 -2.7 °C -7.2 °C 1018.8 hPa Calm     71% 0 mm 0 W/m2
20:40 -2.6 °C -7.2 °C 1018.8 hPa Calm     71% 0 mm 0 W/m2
20:46 -2.7 °C -7.2 °C 1019.2 hPa Calm     71% 0 mm 0 W/m2
20:52 -2.8 °C -7.3 °C 1019.2 hPa Calm     71% 0 mm 0 W/m2
20:58 -2.9 °C -7.2 °C 1019.2 hPa Calm     72% 0 mm 0 W/m2
21:04 -3.1 °C -7.3 °C 1019.2 hPa Calm     73% 0 mm 0 W/m2
21:10 -3.3 °C -7.4 °C 1019.2 hPa Calm     73% 0 mm 0 W/m2
21:16 -3.3 °C -7.3 °C 1019.2 hPa Calm     74% 0 mm 0 W/m2
21:22 -3.3 °C -7.3 °C 1019.2 hPa Calm   1.6 km/h 74% 0 mm 0 W/m2
21:28 -3.3 °C -7.3 °C 1019.2 hPa Calm   1.6 km/h 74% 0 mm 0 W/m2
21:34 -2.9 °C -7.1 °C 1019.2 hPa South 1.6 km/h 1.6 km/h 73% 0 mm 0 W/m2
21:40 -2.6 °C -6.9 °C 1019.2 hPa Calm     72% 0 mm 0 W/m2
21:46 -2.4 °C -7 °C 1019.2 hPa Calm   3.2 km/h 71% 0 mm 0 W/m2
21:52 -2.1 °C -6.7 °C 1019.2 hPa South 1.6 km/h 3.2 km/h 71% 0 mm 0 W/m2
21:58 -1.6 °C -6.8 °C 1019.2 hPa South 3.2 km/h 3.2 km/h 68% 0 mm 0 W/m2
22:04 -1.3 °C -6.7 °C 1019.5 hPa SSW 1.6 km/h 4.8 km/h 67% 0 mm 0 W/m2
22:10 -1.2 °C -6.7 °C 1019.2 hPa SSW 1.6 km/h 3.2 km/h 66% 0 mm 0 W/m2
22:16 -1.1 °C -6.6 °C 1019.2 hPa SSW 1.6 km/h 3.2 km/h 66% 0 mm 0 W/m2
22:22 -0.8 °C -6.8 °C 1019.5 hPa South 3.2 km/h 8 km/h 64% 0 mm 0 W/m2
22:28 -0.5 °C -6.7 °C 1019.5 hPa WSW 4.8 km/h 9.7 km/h 63% 0 mm 0 W/m2
22:34 -0.2 °C -6.8 °C 1019.5 hPa South 3.2 km/h 4.8 km/h 61% 0 mm 0 W/m2
22:40 0 °C -6.8 °C 1019.2 hPa SW 4.8 km/h 4.8 km/h 60% 0 mm 0 W/m2
22:46 0.1 °C -7 °C 1019.2 hPa SSW 3.2 km/h 6.4 km/h 59% 0 mm 0 W/m2
22:52 0 °C -7.1 °C 1019.2 hPa South 4.8 km/h 4.8 km/h 59% 0 mm 0 W/m2
22:58 0.1 °C -7.2 °C 1019.2 hPa SSW 4.8 km/h 9.7 km/h 58% 0 mm 0 W/m2
23:04 0.1 °C -7.2 °C 1019.2 hPa SSW 4.8 km/h 6.4 km/h 58% 0 mm 0 W/m2
23:10 0.2 °C -7.3 °C 1019.2 hPa South 4.8 km/h 4.8 km/h 57% 0 mm 0 W/m2
23:16 0.2 °C -7.3 °C 1019.2 hPa SSW 4.8 km/h 6.4 km/h 57% 0 mm 0 W/m2
23:22 0.2 °C -7.3 °C 1019.2 hPa South 4.8 km/h 4.8 km/h 57% 0 mm 0 W/m2
23:28 0.1 °C -7.4 °C 1019.2 hPa South 4.8 km/h 4.8 km/h 57% 0 mm 0 W/m2
23:34 0.1 °C -7.2 °C 1019.2 hPa South 4.8 km/h 4.8 km/h 58% 0 mm 0 W/m2
23:40 0.1 °C -7.2 °C 1019.2 hPa South 3.2 km/h 8 km/h 58% 0 mm 0 W/m2
23:46 0.3 °C -7.3 °C 1019.2 hPa SSW 4.8 km/h 9.7 km/h 57% 0 mm 0 W/m2
23:52 0.3 °C -7.4 °C 1019.2 hPa SSE 4.8 km/h 9.7 km/h 56% 0 mm 0 W/m2
23:58 0.4 °C -7.4 °C 1019.2 hPa SW 6.4 km/h 9.7 km/h 56% 0 mm 0 W/m2
Country Meadow, Clay, NY, USA
Compliments of Weather Underground - 2 mb